createdAt,value
2019-05-11T00:01:28.201Z,6.12
2019-05-11T00:03:57.066Z,7.20
2019-05-11T00:06:25.922Z,6.30
2019-05-11T00:08:54.906Z,7.92
2019-05-11T00:11:23.862Z,7.50
2019-05-11T00:13:52.961Z,8.15
2019-05-11T00:16:21.826Z,7.40
2019-05-11T00:18:50.778Z,8.33
2019-05-11T00:21:19.772Z,7.00
2019-05-11T00:23:49.226Z,7.00
2019-05-11T00:26:18.179Z,7.30
2019-05-11T00:28:47.097Z,7.53
2019-05-11T00:31:16.324Z,8.68
2019-05-11T00:33:45.265Z,8.18
2019-05-11T00:36:14.099Z,9.98
2019-05-11T00:38:43.233Z,9.75
2019-05-11T00:41:12.671Z,10.30
2019-05-11T00:43:41.577Z,10.30
2019-05-11T00:46:10.485Z,10.38
2019-05-11T00:48:39.708Z,9.10
2019-05-11T00:51:08.788Z,8.40
2019-05-11T00:53:37.811Z,8.73
2019-05-11T00:56:06.669Z,8.38
2019-05-11T00:58:35.607Z,9.75
2019-05-11T01:01:04.806Z,9.85
2019-05-11T01:03:34.083Z,9.63
2019-05-11T01:06:03.329Z,9.80
2019-05-11T01:08:32.489Z,8.85
2019-05-11T01:11:01.421Z,8.50
2019-05-11T01:13:30.339Z,8.13
2019-05-11T01:15:59.458Z,9.60
2019-05-11T01:18:28.670Z,7.87
2019-05-11T01:20:57.502Z,8.13
2019-05-11T01:23:26.292Z,7.75
2019-05-11T01:25:55.119Z,9.28
2019-05-11T01:28:24.250Z,9.13
2019-05-11T01:30:53.070Z,8.63
2019-05-11T01:33:21.909Z,9.50
2019-05-11T01:35:51.198Z,9.30
2019-05-11T01:38:20.405Z,8.95
2019-05-11T01:40:58.311Z,8.95
2019-05-11T01:43:19.811Z,8.90
2019-05-11T01:45:48.565Z,9.65
2019-05-11T01:48:17.396Z,11.20
2019-05-11T01:50:46.237Z,10.43
2019-05-11T01:53:15.087Z,9.33
2019-05-11T01:55:44.188Z,8.60
2019-05-11T01:58:12.973Z,10.15
2019-05-11T02:00:41.751Z,10.00
2019-05-11T02:03:10.786Z,9.00
2019-05-11T02:05:39.541Z,9.30
2019-05-11T02:08:08.352Z,7.55
2019-05-11T02:10:37.241Z,9.85
2019-05-11T02:13:06.005Z,9.68
2019-05-11T02:15:34.892Z,11.05
2019-05-11T02:18:04.157Z,10.53
2019-05-11T02:20:32.959Z,12.43
2019-05-11T02:23:01.768Z,13.15
2019-05-11T02:25:30.633Z,10.68
2019-05-11T02:27:59.946Z,12.10
2019-05-11T02:30:28.931Z,10.50
2019-05-11T02:32:57.725Z,11.73
2019-05-11T02:35:26.616Z,10.43
2019-05-11T02:37:55.970Z,10.90
2019-05-11T02:40:25.247Z,11.45
2019-05-11T02:42:54.329Z,11.50
2019-05-11T02:45:40.047Z,10.30
2019-05-11T02:48:09.129Z,9.35
2019-05-11T02:50:39.018Z,9.45
2019-05-11T02:53:08.564Z,10.20
2019-05-11T02:55:37.637Z,9.88
2019-05-11T02:58:07.413Z,11.10
2019-05-11T03:00:38.928Z,10.82
2019-05-11T03:03:07.738Z,10.78
2019-05-11T03:05:37.188Z,10.23
2019-05-11T03:08:06.436Z,10.43
2019-05-11T03:10:35.479Z,9.58
2019-05-11T03:13:04.522Z,10.85
2019-05-11T03:15:33.410Z,11.75
2019-05-11T03:18:02.277Z,10.93
2019-05-11T03:20:31.132Z,13.00
2019-05-11T03:23:00.687Z,12.10
2019-05-11T03:25:29.593Z,12.70
2019-05-11T03:27:58.860Z,12.50
2019-05-11T03:30:27.685Z,12.33
2019-05-11T03:32:56.853Z,11.88
2019-05-11T03:35:25.695Z,12.00
2019-05-11T03:37:54.524Z,11.15
2019-05-11T03:40:23.475Z,11.15
2019-05-11T03:42:52.321Z,13.55
2019-05-11T03:45:21.513Z,13.20
2019-05-11T03:47:50.393Z,12.75
2019-05-11T03:50:19.280Z,11.00
2019-05-11T03:52:48.244Z,12.35
2019-05-11T03:55:17.247Z,11.20
2019-05-11T03:57:46.334Z,14.70
2019-05-11T04:00:15.741Z,14.73
2019-05-11T04:02:44.526Z,12.45
2019-05-11T04:05:13.492Z,11.95
2019-05-11T04:07:42.608Z,11.83
2019-05-11T04:10:11.853Z,11.38
2019-05-11T04:12:40.669Z,11.08
2019-05-11T04:15:09.609Z,12.20
2019-05-11T04:17:38.862Z,12.35
2019-05-11T04:20:08.293Z,12.95
2019-05-11T04:22:37.152Z,13.28
2019-05-11T04:25:06.602Z,13.15
2019-05-11T04:27:35.393Z,11.55
2019-05-11T04:30:05.035Z,13.15
2019-05-11T04:32:33.939Z,13.15
2019-05-11T04:35:02.849Z,12.25
2019-05-11T04:37:32.006Z,13.18
2019-05-11T04:40:00.874Z,10.88
2019-05-11T04:42:29.716Z,12.33
2019-05-11T04:44:58.543Z,12.75
2019-05-11T04:47:27.444Z,12.63
2019-05-11T04:49:56.298Z,12.70
2019-05-11T04:52:25.112Z,12.23
2019-05-11T04:54:54.212Z,11.97
2019-05-11T04:57:23.353Z,11.50
2019-05-11T04:59:52.519Z,11.65
2019-05-11T05:02:21.771Z,11.30
2019-05-11T05:04:50.786Z,10.82
2019-05-11T05:07:19.693Z,11.22
2019-05-11T05:09:48.684Z,11.57
2019-05-11T05:12:17.746Z,11.28
2019-05-11T05:14:46.652Z,11.63
2019-05-11T05:17:15.622Z,10.90
2019-05-11T05:19:44.810Z,10.93
2019-05-11T05:22:14.646Z,10.88
2019-05-11T05:24:43.812Z,10.20
2019-05-11T05:27:12.975Z,10.68
2019-05-11T05:29:42.584Z,10.38
2019-05-11T05:32:11.526Z,10.60
2019-05-11T05:34:40.989Z,10.95
2019-05-11T05:37:11.332Z,9.85
2019-05-11T05:39:40.240Z,10.85
2019-05-11T05:42:09.297Z,9.45
2019-05-11T05:44:38.372Z,10.25
2019-05-11T05:47:07.883Z,8.93
2019-05-11T05:49:39.254Z,9.25
2019-05-11T05:52:10.137Z,8.85
2019-05-11T05:54:39.106Z,11.33
2019-05-11T05:57:08.086Z,9.68
2019-05-11T05:59:37.021Z,9.65
2019-05-11T06:02:06.424Z,8.90
2019-05-11T06:04:35.647Z,10.53
2019-05-11T06:07:04.711Z,9.20
2019-05-11T06:09:33.788Z,10.00
2019-05-11T06:12:05.498Z,8.80
2019-05-11T06:14:34.683Z,7.92
2019-05-11T06:17:07.435Z,7.37
2019-05-11T06:19:36.590Z,7.22
2019-05-11T06:22:05.981Z,7.00
2019-05-11T06:24:35.212Z,7.25
2019-05-11T06:27:04.633Z,7.33
2019-05-11T06:29:33.823Z,7.25
2019-05-11T06:32:03.400Z,7.17
2019-05-11T06:34:32.681Z,7.55
2019-05-11T06:37:01.877Z,5.85
2019-05-11T06:39:31.031Z,6.28
2019-05-11T06:42:00.206Z,5.90
2019-05-11T06:44:29.454Z,6.30
2019-05-11T06:46:58.692Z,5.33
2019-05-11T06:49:27.889Z,5.75
2019-05-11T06:51:57.171Z,5.33
2019-05-11T06:54:26.205Z,5.65
2019-05-11T06:56:55.385Z,5.28
2019-05-11T06:59:24.660Z,5.95
2019-05-11T07:01:54.243Z,5.50
2019-05-11T07:04:23.407Z,4.30
2019-05-11T07:06:52.655Z,4.70
2019-05-11T07:09:21.739Z,5.20
2019-05-11T07:11:51.481Z,5.55
2019-05-11T07:14:21.488Z,5.50
2019-05-11T07:16:50.435Z,5.60
2019-05-11T07:19:19.583Z,4.70
2019-05-11T07:21:48.723Z,4.92
2019-05-11T07:24:18.186Z,4.67
2019-05-11T07:26:47.368Z,4.33
2019-05-11T07:29:16.775Z,5.00
2019-05-11T07:31:45.748Z,5.37
2019-05-11T07:34:14.966Z,5.75
2019-05-11T07:36:44.231Z,4.50
2019-05-11T07:39:13.310Z,4.45
2019-05-11T07:41:42.142Z,5.65
2019-05-11T07:44:11.437Z,3.35
2019-05-11T07:46:41.094Z,4.05
2019-05-11T07:49:12.636Z,5.00
2019-05-11T07:51:41.468Z,4.10
2019-05-11T07:54:10.215Z,4.60
2019-05-11T07:56:44.344Z,3.50
2019-05-11T07:59:14.333Z,4.55
2019-05-11T08:01:43.318Z,4.20
2019-05-11T08:04:12.578Z,3.83
2019-05-11T08:06:42.065Z,3.60
2019-05-11T08:09:11.064Z,4.20
2019-05-11T08:11:41.218Z,3.17
2019-05-11T08:14:10.052Z,4.30
2019-05-11T08:16:40.514Z,4.12
2019-05-11T08:19:10.799Z,3.35
2019-05-11T08:21:39.908Z,3.65
2019-05-11T08:24:10.692Z,4.45
2019-05-11T08:26:39.938Z,4.37
2019-05-11T08:29:09.432Z,4.90
2019-05-11T08:31:41.386Z,4.87
2019-05-11T08:34:10.320Z,5.55
2019-05-11T08:36:39.444Z,6.28
2019-05-11T08:39:10.829Z,7.00
2019-05-11T08:41:39.991Z,7.53
2019-05-11T08:44:09.101Z,7.85
2019-05-11T08:46:40.814Z,7.17
2019-05-11T08:49:15.192Z,7.47
2019-05-11T08:51:40.698Z,6.97
2019-05-11T08:54:09.547Z,9.60
2019-05-11T08:56:38.524Z,9.78
2019-05-11T08:59:08.121Z,10.70
2019-05-11T09:01:39.293Z,9.55
2019-05-11T09:04:09.055Z,8.90
2019-05-11T09:06:38.323Z,10.23
2019-05-11T09:09:08.873Z,9.65
2019-05-11T09:11:38.961Z,11.40
2019-05-11T09:14:08.488Z,9.88
2019-05-11T09:16:38.439Z,10.55
2019-05-11T09:19:08.732Z,9.73
2019-05-11T09:21:38.481Z,10.58
2019-05-11T09:24:08.581Z,11.40
2019-05-11T09:26:38.938Z,12.25
2019-05-11T09:29:08.719Z,12.82
2019-05-11T09:31:40.771Z,11.88
2019-05-11T09:34:09.579Z,10.95
2019-05-11T09:36:41.271Z,18.48
2019-05-11T09:39:10.131Z,12.65
2019-05-11T09:41:38.949Z,13.50
2019-05-11T09:44:08.990Z,11.95
2019-05-11T09:46:39.552Z,13.72
2019-05-11T09:49:08.545Z,14.28
2019-05-11T09:51:38.165Z,13.98
2019-05-11T09:54:07.900Z,14.50
2019-05-11T09:56:38.257Z,11.90
2019-05-11T09:59:08.759Z,13.98
2019-05-11T10:01:38.107Z,10.15
2019-05-11T10:04:08.982Z,9.98
2019-05-11T10:06:38.869Z,11.25
2019-05-11T10:09:08.389Z,9.43
2019-05-11T10:11:39.665Z,13.22
2019-05-11T10:14:08.617Z,13.32
2019-05-11T10:16:38.638Z,11.80
2019-05-11T10:19:08.637Z,12.03
2019-05-11T10:21:38.587Z,15.05
2019-05-11T10:24:08.587Z,13.80
2019-05-11T10:26:38.408Z,16.77
2019-05-11T10:29:08.018Z,15.85
2019-05-11T10:31:38.549Z,13.30
2019-05-11T10:34:08.666Z,14.03
2019-05-11T10:36:38.568Z,14.30
2019-05-11T10:39:08.975Z,16.93
2019-05-11T10:41:38.751Z,15.88
2019-05-11T10:44:08.327Z,14.03
2019-05-11T10:46:38.799Z,12.03
2019-05-11T10:49:08.332Z,17.27
2019-05-11T10:51:38.317Z,16.40
2019-05-11T10:54:08.772Z,17.77
2019-05-11T10:56:38.877Z,16.55
2019-05-11T10:59:08.093Z,17.67
2019-05-11T11:01:38.026Z,16.30
2019-05-11T11:04:07.837Z,20.30
2019-05-11T11:06:38.678Z,21.07
2019-05-11T11:09:08.647Z,17.92
2019-05-11T11:11:38.262Z,12.07
2019-05-11T11:14:08.692Z,10.75
2019-05-11T11:16:42.424Z,9.38
2019-05-11T11:19:08.632Z,9.08
2019-05-11T11:21:38.321Z,8.25
2019-05-11T11:24:07.718Z,8.60
2019-05-11T11:26:37.943Z,9.93
2019-05-11T11:29:08.622Z,7.90
2019-05-11T11:31:38.187Z,7.90
2019-05-11T11:34:08.310Z,7.53
2019-05-11T11:36:37.722Z,8.60
2019-05-11T11:39:08.521Z,8.58
2019-05-11T11:41:37.975Z,9.83
2019-05-11T11:44:07.853Z,9.15
2019-05-11T11:46:51.258Z,9.05
2019-05-11T11:49:08.265Z,12.63
2019-05-11T11:51:37.839Z,12.00
2019-05-11T11:54:08.698Z,17.05
2019-05-11T11:56:38.264Z,14.83
2019-05-11T11:59:08.540Z,15.95
2019-05-11T12:01:38.379Z,19.23
2019-05-11T12:04:08.221Z,18.07
2019-05-11T12:06:38.543Z,19.27
2019-05-11T12:09:08.948Z,18.32
2019-05-11T12:11:38.239Z,17.80
2019-05-11T12:14:08.712Z,21.75
2019-05-11T12:16:38.812Z,16.57
2019-05-11T12:19:08.500Z,20.17
2019-05-11T12:21:37.920Z,20.60
2019-05-11T12:24:08.252Z,20.85
2019-05-11T12:26:38.817Z,19.27
2019-05-11T12:29:08.339Z,18.73
2019-05-11T12:31:38.004Z,20.82
2019-05-11T12:34:08.755Z,21.80
2019-05-11T12:36:38.749Z,22.82
2019-05-11T12:39:08.666Z,21.97
2019-05-11T12:41:38.780Z,21.37
2019-05-11T12:44:08.351Z,21.62
2019-05-11T12:46:39.469Z,22.90
2019-05-11T12:49:08.200Z,23.02
2019-05-11T12:51:38.245Z,24.72
2019-05-11T12:54:08.278Z,30.15
2019-05-11T12:56:38.353Z,29.18
2019-05-11T12:59:08.231Z,29.72
2019-05-11T13:01:38.111Z,29.98
2019-05-11T13:04:08.941Z,34.92
2019-05-11T13:06:38.524Z,30.60
2019-05-11T13:09:08.295Z,32.95
2019-05-11T13:11:38.004Z,27.98
2019-05-11T13:14:08.070Z,27.40
2019-05-11T13:16:37.876Z,28.23
2019-05-11T13:19:08.397Z,33.63
2019-05-11T13:21:38.224Z,34.67
2019-05-11T13:24:08.339Z,30.68
2019-05-11T13:26:38.088Z,30.02
2019-05-11T13:29:07.738Z,31.02
2019-05-11T13:31:38.366Z,30.95
2019-05-11T13:34:08.389Z,36.68
2019-05-11T13:36:38.203Z,33.85
2019-05-11T13:39:08.862Z,30.75
2019-05-11T13:41:38.403Z,29.42
2019-05-11T13:44:08.161Z,37.40
2019-05-11T13:46:38.869Z,34.50
2019-05-11T13:49:08.591Z,32.58
2019-05-11T13:51:38.821Z,30.65
2019-05-11T13:54:08.015Z,29.35
2019-05-11T13:56:37.956Z,30.32
2019-05-11T13:59:10.388Z,27.85
2019-05-11T14:01:38.948Z,30.35
2019-05-11T14:04:08.569Z,31.75
2019-05-11T14:06:37.913Z,27.48
2019-05-11T14:09:08.807Z,26.15
2019-05-11T14:11:39.061Z,25.40
2019-05-11T14:14:08.424Z,24.90
2019-05-11T14:16:37.961Z,23.00
2019-05-11T14:19:08.622Z,21.60
2019-05-11T14:21:38.436Z,26.10
2019-05-11T14:24:07.955Z,26.05
2019-05-11T14:26:38.563Z,27.37
2019-05-11T14:29:08.480Z,26.90
2019-05-11T14:31:38.662Z,24.70
2019-05-11T14:34:08.872Z,27.80
2019-05-11T14:36:38.765Z,26.57
2019-05-11T14:39:08.655Z,24.02
2019-05-11T14:41:38.321Z,26.27
2019-05-11T14:44:08.835Z,26.20
2019-05-11T14:46:38.550Z,25.85
2019-05-11T14:49:08.161Z,21.87
2019-05-11T14:51:39.054Z,19.82
2019-05-11T14:54:08.132Z,19.98
2019-05-11T14:56:37.983Z,22.15
2019-05-11T14:59:09.000Z,18.70
2019-05-11T15:01:38.362Z,18.42
2019-05-11T15:04:09.072Z,15.83
2019-05-11T15:06:38.619Z,18.52
2019-05-11T15:09:08.359Z,15.68
2019-05-11T15:11:38.863Z,18.65
2019-05-11T15:14:08.368Z,14.95
2019-05-11T15:16:38.419Z,16.50
2019-05-11T15:19:08.062Z,16.37
2019-05-11T15:21:38.677Z,15.23
2019-05-11T15:24:09.088Z,15.03
2019-05-11T15:26:38.263Z,14.95
2019-05-11T15:29:08.214Z,15.55
2019-05-11T15:31:38.074Z,17.17
2019-05-11T15:34:08.647Z,16.42
2019-05-11T15:36:38.641Z,20.48
2019-05-11T15:39:08.223Z,18.70
2019-05-11T15:41:38.892Z,19.20
2019-05-11T15:44:11.500Z,20.50
2019-05-11T15:46:38.949Z,18.17
2019-05-11T15:49:08.823Z,20.48
2019-05-11T15:51:38.334Z,17.05
2019-05-11T15:54:08.359Z,18.25
2019-05-11T15:56:38.581Z,18.32
2019-05-11T15:59:08.678Z,19.07
2019-05-11T16:01:40.772Z,17.32
2019-05-11T16:04:09.090Z,17.98
2019-05-11T16:06:38.291Z,17.02
2019-05-11T16:09:08.441Z,17.10
2019-05-11T16:11:38.847Z,18.23
2019-05-11T16:14:08.927Z,18.30
2019-05-11T16:16:39.086Z,18.12
2019-05-11T16:19:13.958Z,17.45
2019-05-11T16:21:39.190Z,17.35
2019-05-11T16:24:08.333Z,19.37
2019-05-11T16:26:37.267Z,17.77
2019-05-11T16:29:08.502Z,17.55
2019-05-11T16:31:37.891Z,16.48
2019-05-11T16:34:08.034Z,15.20
2019-05-11T16:36:38.908Z,19.02
2019-05-11T16:39:10.467Z,16.27
2019-05-11T16:41:39.074Z,15.93
2019-05-11T16:44:08.066Z,14.75
2019-05-11T16:46:38.912Z,15.60
2019-05-11T16:49:10.737Z,14.93
2019-05-11T16:51:38.980Z,16.55
2019-05-11T16:54:07.919Z,14.00
2019-05-11T16:56:38.281Z,14.90
2019-05-11T16:59:08.169Z,17.55
2019-05-11T17:01:37.906Z,14.60
2019-05-11T17:04:07.125Z,16.60
2019-05-11T17:06:38.320Z,15.98
2019-05-11T17:09:08.922Z,18.32
2019-05-11T17:11:38.438Z,17.32
2019-05-11T17:14:08.362Z,17.48
2019-05-11T17:16:38.509Z,18.00
2019-05-11T17:19:08.105Z,21.95
2019-05-11T17:21:38.047Z,20.50
2019-05-11T17:24:07.438Z,23.47
2019-05-11T17:26:38.453Z,25.68
2019-05-11T17:29:09.892Z,25.65
2019-05-11T17:31:38.087Z,26.68
2019-05-11T17:34:09.112Z,21.50
2019-05-11T17:36:38.024Z,23.38
2019-05-11T17:39:08.057Z,22.70
2019-05-11T17:41:38.762Z,22.40
2019-05-11T17:44:08.281Z,23.15
2019-05-11T17:46:38.512Z,26.23
2019-05-11T17:49:08.004Z,23.73
2019-05-11T17:51:37.941Z,23.12
2019-05-11T17:54:07.886Z,21.68
2019-05-11T17:56:38.789Z,18.90
2019-05-11T17:59:08.291Z,21.52
2019-05-11T18:01:37.147Z,19.82
2019-05-11T18:04:08.003Z,20.95
2019-05-11T18:06:38.427Z,22.30
2019-05-11T18:09:08.429Z,24.10
2019-05-11T18:11:38.017Z,24.27
2019-05-11T18:14:08.343Z,21.75
2019-05-11T18:16:37.347Z,24.47
2019-05-11T18:19:08.498Z,21.50
2019-05-11T18:21:38.655Z,26.33
2019-05-11T18:24:09.100Z,24.23
2019-05-11T18:26:38.298Z,22.93
2019-05-11T18:29:07.491Z,22.90
2019-05-11T18:31:38.322Z,22.55
2019-05-11T18:34:08.847Z,24.45
2019-05-11T18:36:38.190Z,21.20
2019-05-11T18:39:08.048Z,24.05
2019-05-11T18:41:39.066Z,22.50
2019-05-11T18:44:08.260Z,24.12
2019-05-11T18:46:38.835Z,24.43
2019-05-11T18:49:07.994Z,24.15
2019-05-11T18:51:37.796Z,25.00
2019-05-11T18:54:09.380Z,21.80
2019-05-11T18:56:38.163Z,21.95
2019-05-11T18:59:08.918Z,19.70
2019-05-11T19:01:38.181Z,15.65
2019-05-11T19:04:07.807Z,18.77
2019-05-11T19:06:37.838Z,19.57
2019-05-11T19:09:07.728Z,20.02
2019-05-11T19:11:38.386Z,19.20
2019-05-11T19:14:08.631Z,18.98
2019-05-11T19:16:39.009Z,18.32
2019-05-11T19:19:08.219Z,19.20
2019-05-11T19:21:37.141Z,17.45
2019-05-11T19:24:07.019Z,15.43
2019-05-11T19:26:36.487Z,16.90
2019-05-11T19:29:05.424Z,18.15
2019-05-11T19:31:34.224Z,13.30
2019-05-11T19:34:03.223Z,18.00
2019-05-11T19:36:32.014Z,13.58
2019-05-11T19:39:00.859Z,13.98
2019-05-11T19:41:29.715Z,15.35
2019-05-11T19:43:58.463Z,15.70
2019-05-11T19:46:27.992Z,16.20
2019-05-11T19:48:57.965Z,15.48
2019-05-11T19:51:28.936Z,13.95
2019-05-11T19:53:57.927Z,13.90
2019-05-11T19:56:28.940Z,13.30
2019-05-11T19:58:57.945Z,15.48
2019-05-11T20:01:27.915Z,14.45
2019-05-11T20:03:56.803Z,15.38
2019-05-11T20:06:27.913Z,15.75
2019-05-11T20:08:58.137Z,16.12
2019-05-11T20:11:27.958Z,15.90
2019-05-11T20:13:58.834Z,14.78
2019-05-11T20:16:27.454Z,13.90
2019-05-11T20:18:57.817Z,12.98
2019-05-11T20:21:28.823Z,14.13
2019-05-11T20:23:57.786Z,13.88
2019-05-11T20:26:28.566Z,14.90
2019-05-11T20:28:58.812Z,14.25
2019-05-11T20:31:27.838Z,16.35
2019-05-11T20:33:56.637Z,16.52
2019-05-11T20:36:25.402Z,15.38
2019-05-11T20:38:54.151Z,16.95
2019-05-11T20:41:22.903Z,17.73
2019-05-11T20:43:51.680Z,18.35
2019-05-11T20:46:20.461Z,18.98
2019-05-11T20:48:49.287Z,17.40
2019-05-11T20:51:32.811Z,16.48
2019-05-11T20:53:49.014Z,17.82
2019-05-11T20:56:18.012Z,17.27
2019-05-11T20:58:58.817Z,20.08
2019-05-11T21:01:28.530Z,16.37
2019-05-11T21:03:58.512Z,16.35
2019-05-11T21:06:29.371Z,18.02
2019-05-11T21:08:58.399Z,16.37
2019-05-11T21:11:27.260Z,17.15
2019-05-11T21:13:56.128Z,15.15
2019-05-11T21:16:25.161Z,15.95
2019-05-11T21:18:54.495Z,16.87
2019-05-11T21:21:23.593Z,16.35
2019-05-11T21:23:52.371Z,16.67
2019-05-11T21:26:21.130Z,21.55
2019-05-11T21:28:50.128Z,16.32
2019-05-11T21:31:19.142Z,20.88
2019-05-11T21:33:47.875Z,17.07
2019-05-11T21:36:18.065Z,18.67
2019-05-11T21:38:48.249Z,22.42
2019-05-11T21:41:17.321Z,18.02
2019-05-11T21:43:48.200Z,20.23
2019-05-11T21:46:18.111Z,19.67
2019-05-11T21:48:47.784Z,22.85
2019-05-11T21:51:18.170Z,21.90
2019-05-11T21:53:48.678Z,26.25
2019-05-11T21:56:18.720Z,22.48
2019-05-11T21:58:47.927Z,20.30
2019-05-11T22:01:20.050Z,25.10
2019-05-11T22:03:48.014Z,24.82
2019-05-11T22:06:17.089Z,25.15
2019-05-11T22:08:50.568Z,21.07
2019-05-11T22:11:17.986Z,20.00
2019-05-11T22:13:48.467Z,17.87
2019-05-11T22:16:17.575Z,18.23
2019-05-11T22:18:48.413Z,20.92
2019-05-11T22:21:18.734Z,20.37
2019-05-11T22:23:50.683Z,19.02
2019-05-11T22:26:18.936Z,17.80
2019-05-11T22:28:48.232Z,18.95
2019-05-11T22:31:18.330Z,21.20
2019-05-11T22:33:48.022Z,17.67
2019-05-11T22:36:16.936Z,21.80
2019-05-11T22:38:48.147Z,21.05
2019-05-11T22:41:18.083Z,17.55
2019-05-11T22:43:48.580Z,15.80
2019-05-11T22:46:17.814Z,15.95
2019-05-11T22:48:48.973Z,14.25
2019-05-11T22:51:18.325Z,19.87
2019-05-11T22:53:50.319Z,17.52
2019-05-11T22:56:20.179Z,17.48
2019-05-11T22:58:49.914Z,13.83
2019-05-11T23:01:18.871Z,17.55
2019-05-11T23:03:47.698Z,15.10
2019-05-11T23:06:18.124Z,11.30
2019-05-11T23:08:48.366Z,12.75
2019-05-11T23:11:17.962Z,14.25
2019-05-11T23:13:47.919Z,12.35
2019-05-11T23:16:17.947Z,11.28
2019-05-11T23:18:48.112Z,10.58
2019-05-11T23:21:17.006Z,11.10
2019-05-11T23:23:47.716Z,13.30
2019-05-11T23:26:17.787Z,13.08
2019-05-11T23:28:48.642Z,12.80
2019-05-11T23:31:17.300Z,12.53
2019-05-11T23:33:46.064Z,11.73
2019-05-11T23:36:14.794Z,13.80
2019-05-11T23:38:43.564Z,12.95
2019-05-11T23:41:23.762Z,11.57
2019-05-11T23:43:42.933Z,7.92
2019-05-11T23:46:11.713Z,9.85
2019-05-11T23:48:40.483Z,9.40
2019-05-11T23:51:09.762Z,8.03
2019-05-11T23:53:38.860Z,8.40
2019-05-11T23:56:07.993Z,8.73
2019-05-11T23:58:38.972Z,9.25
